Accueil
METAR-TAF:

METAR-TAF

Aéroports :

Ancône, Italie

latitude: 43-37N, longitude: 013-22E, altitude: 12 m

Observation

Le bulletin a été fait il y a 37 minutes, à 09:20 UTC
Vent 4 kt de sud/sud-ouest, variant entre sud et ouest/sud-ouest
Température 17°C
Humidité 82%
Pression 1017 hPa
Visibilité 10 km ou plus

METAR: LIPY 300920Z AUTO 20004KT 180V250 9999 FEW081/// BKN099/// 17/14 Q1017

Heure: 11:57 (09:57 UTC)

Prévision

Le bulletin a été fait il y a 4 heures et 57 minutes, à 05:00 UTC
Prévision valable du 30 à 06 UTC au 31 à 06 UTC
Vent 5 kt de direction variable
Visibilité 10 km ou plus
Nuages épars à une hauteur de 4000 ft
Temporairement
du 30 à 06 UTC au 30 à 12 UTC
averses de pluie
Evoluant progressivement
du 30 à 07 UTC au 30 à 09 UTC
Vent 10 kt de nord

TAF: LIPY 300500Z 3006/3106 VRB05KT 9999 SCT040 TEMPO 3006/3012 SHRA BECMG 3007/3009 01010KT

Observations et prévisions météorologiques de plus de 4000 aéroports (messages METAR et TAF).

Les stations disponibles sont représentées par des disques jaunes et rouges sur la carte.

Passer la souris dessus pour voir le nom de la station.

Cliquer dessus pour voir les observations et prévisions météorologiques.

Pour changer de carte: cliquez sur les boutons verts avec une croix noire pour zoomer, sur le bouton vert avec un tiret pour effectuer un zoom arrière, ou sur les flèches vertes pour les cartes adjacentes.


METAR-TAF: